Terminal Aerodrome Forecast
Issued by NWS Grand Forks, ND

Home | Current Version | Previous Version | Graphics & Text | Print | Product List | Glossary On
Versions: 1 2 3 4 5 6 7 8 9 10 11 12 13
000
FTUS43 KFGF 012300
TAFFAR
TAF
KFAR 012336Z 0200/0224 30012KT P6SM BKN035
     FM020200 28008KT P6SM SCT040
     FM020500 23006KT P6SM SKC
     FM021400 17012G18KT P6SM SKC
     FM021700 17020G30KT P6SM SCT250
     FM022100 17024G32KT P6SM BKN050=

USA.gov is the U.S. government's official web portal to all federal, state and local government web resources and services.